KTRI/TRI METAR and TAF weather

Enter ICAO airport designator
Station Type Date Time Source
KTRI METAR 2024/04/18 07:53 UTC NOAA

KTRI 180753Z 24007KT 10SM OVC015 17/14 A3009 RMK AO2 SLP167 T01720139


Station Type Date Time Source
KTRI Decoded METAR 2024/04/18 07:53 UTC NOAA

TRI-CITY REGIONAL AIRPORT, TN, United States (KTRI) 36-28N 082-24W 474M
Apr 18, 2024 - 03:53 AM EDT / 2024.04.18 0753 UTC
Wind: from the WSW (240 degrees) at 8 MPH (7 KT):0
Visibility: 10 mile(s):0
Sky conditions: overcast
Temperature: 63.0 F (17.2 C)
Dew Point: 57.0 F (13.9 C)
Relative Humidity: 80%
Pressure (altimeter): 30.09 in. Hg (1018 hPa)
ob: KTRI 180753Z 24007KT 10SM OVC015 17/14 A3009 RMK AO2 SLP167 T01720139
cycle: 8

Station Type Date Time Source
KTRI TAF 2024/04/18 06:24 UTC NOAA